sensor_id;sensor_type;location;lat;lon;timestamp;pressure;altitude;pressure_sealevel;temperature;humidity
81151;BME280;70629;-26.026;27.976;2023-07-20T00:00:15;86830.06;;;6.88;58.92
81151;BME280;70629;-26.026;27.976;2023-07-20T00:01:50;86829.69;;;7.43;56.68
81151;BME280;70629;-26.026;27.976;2023-07-20T00:03:25;86833.63;;;7.12;57.88
81151;BME280;70629;-26.026;27.976;2023-07-20T00:04:59;86824.03;;;6.87;57.86
81151;BME280;70629;-26.026;27.976;2023-07-20T00:06:34;86826.34;;;7.02;57.71
81151;BME280;70629;-26.026;27.976;2023-07-20T00:08:09;86833.94;;;7.37;56.10
81151;BME280;70629;-26.026;27.976;2023-07-20T00:09:44;86832.72;;;7.49;56.03
81151;BME280;70629;-26.026;27.976;2023-07-20T00:11:20;86826.03;;;7.08;56.55
81151;BME280;70629;-26.026;27.976;2023-07-20T00:12:55;86836.78;;;6.98;57.15
81151;BME280;70629;-26.026;27.976;2023-07-20T00:14:30;86840.75;;;7.49;56.05
81151;BME280;70629;-26.026;27.976;2023-07-20T00:16:06;86836.97;;;7.95;54.67
81151;BME280;70629;-26.026;27.976;2023-07-20T00:17:41;86829.66;;;7.96;54.05
81151;BME280;70629;-26.026;27.976;2023-07-20T00:19:16;86830.75;;;7.29;56.11
81151;BME280;70629;-26.026;27.976;2023-07-20T00:20:51;86831.78;;;6.74;57.78
81151;BME280;70629;-26.026;27.976;2023-07-20T00:22:26;86827.16;;;6.65;59.03
81151;BME280;70629;-26.026;27.976;2023-07-20T00:24:01;86832.97;;;7.01;57.68
81151;BME280;70629;-26.026;27.976;2023-07-20T00:25:36;86829.69;;;7.65;55.23
81151;BME280;70629;-26.026;27.976;2023-07-20T00:27:11;86831.59;;;7.74;54.93
81151;BME280;70629;-26.026;27.976;2023-07-20T00:28:46;86829.00;;;7.64;54.82
81151;BME280;70629;-26.026;27.976;2023-07-20T00:30:21;86818.59;;;7.59;55.69
81151;BME280;70629;-26.026;27.976;2023-07-20T00:31:56;86834.91;;;7.41;56.39
81151;BME280;70629;-26.026;27.976;2023-07-20T00:33:31;86827.06;;;7.34;55.67
81151;BME280;70629;-26.026;27.976;2023-07-20T00:35:06;86826.06;;;7.60;55.78
81151;BME280;70629;-26.026;27.976;2023-07-20T00:36:41;86834.66;;;7.59;56.03
81151;BME280;70629;-26.026;27.976;2023-07-20T00:38:17;86828.22;;;7.52;55.68
81151;BME280;70629;-26.026;27.976;2023-07-20T00:39:53;86837.25;;;7.47;56.78
81151;BME280;70629;-26.026;27.976;2023-07-20T00:41:28;86831.38;;;7.08;58.06
81151;BME280;70629;-26.026;27.976;2023-07-20T00:43:08;86837.88;;;7.36;57.24
81151;BME280;70629;-26.026;27.976;2023-07-20T00:44:43;86837.88;;;7.67;55.88
81151;BME280;70629;-26.026;27.976;2023-07-20T00:46:18;86836.00;;;7.69;55.96
81151;BME280;70629;-26.026;27.976;2023-07-20T00:47:53;86851.59;;;7.52;56.74
81151;BME280;70629;-26.026;27.976;2023-07-20T00:49:28;86863.69;;;6.91;57.77
81151;BME280;70629;-26.026;27.976;2023-07-20T00:51:04;86875.31;;;7.05;58.50
81151;BME280;70629;-26.026;27.976;2023-07-20T00:52:39;86892.22;;;6.98;57.67
81151;BME280;70629;-26.026;27.976;2023-07-20T00:54:15;86889.00;;;6.90;59.19
81151;BME280;70629;-26.026;27.976;2023-07-20T00:55:50;86891.03;;;6.70;58.75
81151;BME280;70629;-26.026;27.976;2023-07-20T00:57:25;86886.13;;;6.47;61.34
81151;BME280;70629;-26.026;27.976;2023-07-20T00:59:01;86885.72;;;6.12;62.14
81151;BME280;70629;-26.026;27.976;2023-07-20T01:00:35;86885.16;;;6.24;61.59
81151;BME280;70629;-26.026;27.976;2023-07-20T01:02:10;86895.47;;;6.96;58.96
81151;BME280;70629;-26.026;27.976;2023-07-20T01:03:45;86889.78;;;7.12;58.57
81151;BME280;70629;-26.026;27.976;2023-07-20T01:05:21;86882.44;;;6.81;58.86
81151;BME280;70629;-26.026;27.976;2023-07-20T01:10:20;86877.81;;;6.63;59.72
81151;BME280;70629;-26.026;27.976;2023-07-20T01:12:07;86878.81;;;7.07;58.37
81151;BME280;70629;-26.026;27.976;2023-07-20T01:13:43;86880.81;;;6.97;57.71
81151;BME280;70629;-26.026;27.976;2023-07-20T01:15:19;86890.94;;;7.09;58.89
81151;BME280;70629;-26.026;27.976;2023-07-20T01:16:54;86893.31;;;7.14;59.26
81151;BME280;70629;-26.026;27.976;2023-07-20T01:18:29;86889.50;;;6.67;60.03
81151;BME280;70629;-26.026;27.976;2023-07-20T01:20:06;86899.91;;;6.73;60.45
81151;BME280;70629;-26.026;27.976;2023-07-20T01:24:12;86898.75;;;7.26;57.18
81151;BME280;70629;-26.026;27.976;2023-07-20T01:28:26;86888.56;;;6.93;59.30
81151;BME280;70629;-26.026;27.976;2023-07-20T01:30:16;86892.44;;;7.21;57.91
81151;BME280;70629;-26.026;27.976;2023-07-20T01:31:54;86892.38;;;6.90;59.43
81151;BME280;70629;-26.026;27.976;2023-07-20T01:33:32;86892.53;;;7.33;57.47
81151;BME280;70629;-26.026;27.976;2023-07-20T01:35:08;86883.16;;;7.13;58.51
81151;BME280;70629;-26.026;27.976;2023-07-20T01:36:45;86890.34;;;7.20;57.73
81151;BME280;70629;-26.026;27.976;2023-07-20T01:38:21;86891.56;;;7.28;57.30
81151;BME280;70629;-26.026;27.976;2023-07-20T01:39:58;86886.69;;;7.15;56.48
81151;BME280;70629;-26.026;27.976;2023-07-20T01:41:34;86890.06;;;7.16;57.80
81151;BME280;70629;-26.026;27.976;2023-07-20T01:43:09;86894.66;;;7.34;57.90
81151;BME280;70629;-26.026;27.976;2023-07-20T01:44:45;86887.66;;;7.20;58.46
81151;BME280;70629;-26.026;27.976;2023-07-20T01:46:19;86889.84;;;6.92;59.81
81151;BME280;70629;-26.026;27.976;2023-07-20T01:47:55;86884.25;;;6.69;59.50
81151;BME280;70629;-26.026;27.976;2023-07-20T01:49:29;86883.16;;;6.72;60.03
81151;BME280;70629;-26.026;27.976;2023-07-20T01:51:04;86884.69;;;6.66;60.13
81151;BME280;70629;-26.026;27.976;2023-07-20T01:52:39;86876.25;;;6.69;60.54
81151;BME280;70629;-26.026;27.976;2023-07-20T01:54:13;86882.53;;;6.83;60.29
81151;BME280;70629;-26.026;27.976;2023-07-20T01:55:48;86878.31;;;6.90;59.51
81151;BME280;70629;-26.026;27.976;2023-07-20T01:57:23;86871.72;;;7.22;58.82
81151;BME280;70629;-26.026;27.976;2023-07-20T01:58:58;86885.06;;;6.91;58.68
81151;BME280;70629;-26.026;27.976;2023-07-20T02:00:33;86883.94;;;6.94;58.90
81151;BME280;70629;-26.026;27.976;2023-07-20T02:02:08;86883.97;;;6.84;59.91
81151;BME280;70629;-26.026;27.976;2023-07-20T02:03:42;86884.97;;;6.70;60.41
81151;BME280;70629;-26.026;27.976;2023-07-20T02:05:17;86878.66;;;6.65;60.41
81151;BME280;70629;-26.026;27.976;2023-07-20T02:06:53;86884.00;;;6.65;60.50
81151;BME280;70629;-26.026;27.976;2023-07-20T02:08:27;86880.59;;;6.74;60.95
81151;BME280;70629;-26.026;27.976;2023-07-20T02:10:03;86878.53;;;7.13;59.34
81151;BME280;70629;-26.026;27.976;2023-07-20T02:11:38;86882.22;;;6.98;59.21
81151;BME280;70629;-26.026;27.976;2023-07-20T02:13:12;86881.56;;;6.88;59.88
81151;BME280;70629;-26.026;27.976;2023-07-20T02:14:47;86881.91;;;7.14;59.01
81151;BME280;70629;-26.026;27.976;2023-07-20T02:16:22;86873.41;;;6.86;60.37
81151;BME280;70629;-26.026;27.976;2023-07-20T02:17:57;86877.94;;;6.74;60.76
81151;BME280;70629;-26.026;27.976;2023-07-20T02:19:32;86880.72;;;6.86;60.68
81151;BME280;70629;-26.026;27.976;2023-07-20T02:21:07;86879.06;;;6.71;60.01
81151;BME280;70629;-26.026;27.976;2023-07-20T02:22:42;86876.13;;;6.67;60.37
81151;BME280;70629;-26.026;27.976;2023-07-20T02:24:17;86880.72;;;6.86;60.18
81151;BME280;70629;-26.026;27.976;2023-07-20T02:25:51;86881.75;;;7.12;59.42
81151;BME280;70629;-26.026;27.976;2023-07-20T02:27:26;86882.16;;;7.18;59.77
81151;BME280;70629;-26.026;27.976;2023-07-20T02:29:01;86883.38;;;6.95;59.85
81151;BME280;70629;-26.026;27.976;2023-07-20T02:30:39;86879.22;;;7.14;58.87
81151;BME280;70629;-26.026;27.976;2023-07-20T02:32:13;86884.09;;;7.27;58.04
81151;BME280;70629;-26.026;27.976;2023-07-20T02:33:48;86882.75;;;7.06;59.13
81151;BME280;70629;-26.026;27.976;2023-07-20T02:35:23;86880.81;;;6.97;59.07
81151;BME280;70629;-26.026;27.976;2023-07-20T02:36:58;86877.56;;;7.09;58.86
81151;BME280;70629;-26.026;27.976;2023-07-20T02:38:35;86890.75;;;7.16;58.74
81151;BME280;70629;-26.026;27.976;2023-07-20T02:40:09;86881.66;;;7.10;57.80
81151;BME280;70629;-26.026;27.976;2023-07-20T02:41:45;86875.88;;;7.03;58.77
81151;BME280;70629;-26.026;27.976;2023-07-20T02:43:21;86882.56;;;7.24;57.87
81151;BME280;70629;-26.026;27.976;2023-07-20T02:44:55;86882.53;;;7.33;57.83
81151;BME280;70629;-26.026;27.976;2023-07-20T02:46:30;86879.50;;;7.18;58.45
81151;BME280;70629;-26.026;27.976;2023-07-20T02:48:05;86881.84;;;7.33;57.87
81151;BME280;70629;-26.026;27.976;2023-07-20T02:49:42;86883.16;;;7.13;58.15
81151;BME280;70629;-26.026;27.976;2023-07-20T02:51:18;86880.69;;;7.36;57.37
81151;BME280;70629;-26.026;27.976;2023-07-20T02:52:52;86887.53;;;7.18;57.99
81151;BME280;70629;-26.026;27.976;2023-07-20T02:54:28;86885.00;;;7.20;58.44
81151;BME280;70629;-26.026;27.976;2023-07-20T02:56:04;86877.91;;;7.34;58.12
81151;BME280;70629;-26.026;27.976;2023-07-20T02:57:39;86888.25;;;7.09;58.31
81151;BME280;70629;-26.026;27.976;2023-07-20T02:59:14;86886.19;;;7.38;57.49
81151;BME280;70629;-26.026;27.976;2023-07-20T03:00:48;86886.72;;;7.05;58.37
81151;BME280;70629;-26.026;27.976;2023-07-20T03:02:23;86883.53;;;7.28;57.47
81151;BME280;70629;-26.026;27.976;2023-07-20T03:03:58;86882.22;;;6.98;59.14
81151;BME280;70629;-26.026;27.976;2023-07-20T03:05:33;86877.31;;;7.35;58.36
81151;BME280;70629;-26.026;27.976;2023-07-20T03:07:08;86886.56;;;7.44;57.24
81151;BME280;70629;-26.026;27.976;2023-07-20T03:08:46;86880.97;;;7.30;58.51
81151;BME280;70629;-26.026;27.976;2023-07-20T03:10:26;86887.97;;;7.14;57.63
81151;BME280;70629;-26.026;27.976;2023-07-20T03:12:01;86882.03;;;7.16;58.09
81151;BME280;70629;-26.026;27.976;2023-07-20T03:13:38;86884.38;;;6.90;58.62
81151;BME280;70629;-26.026;27.976;2023-07-20T03:15:13;86886.66;;;7.25;58.24
81151;BME280;70629;-26.026;27.976;2023-07-20T03:16:48;86883.84;;;7.23;57.92
81151;BME280;70629;-26.026;27.976;2023-07-20T03:18:23;86892.13;;;6.86;58.78
81151;BME280;70629;-26.026;27.976;2023-07-20T03:19:58;86893.78;;;7.01;58.90
81151;BME280;70629;-26.026;27.976;2023-07-20T03:21:34;86891.34;;;7.15;58.81
81151;BME280;70629;-26.026;27.976;2023-07-20T03:23:08;86897.47;;;7.27;58.18
81151;BME280;70629;-26.026;27.976;2023-07-20T03:24:43;86900.75;;;7.16;57.32
81151;BME280;70629;-26.026;27.976;2023-07-20T03:26:19;86901.38;;;7.04;58.95
81151;BME280;70629;-26.026;27.976;2023-07-20T03:27:54;86900.38;;;7.00;58.83
81151;BME280;70629;-26.026;27.976;2023-07-20T03:29:32;86900.16;;;6.86;59.39
81151;BME280;70629;-26.026;27.976;2023-07-20T03:31:07;86904.28;;;7.18;58.20
81151;BME280;70629;-26.026;27.976;2023-07-20T03:32:42;86905.56;;;7.07;59.17
81151;BME280;70629;-26.026;27.976;2023-07-20T03:34:17;86913.78;;;6.81;59.13
81151;BME280;70629;-26.026;27.976;2023-07-20T03:35:52;86916.88;;;6.87;59.61
81151;BME280;70629;-26.026;27.976;2023-07-20T03:37:27;86914.69;;;7.14;58.71
81151;BME280;70629;-26.026;27.976;2023-07-20T03:39:01;86921.63;;;7.07;59.12
81151;BME280;70629;-26.026;27.976;2023-07-20T03:40:37;86913.31;;;7.03;58.93
81151;BME280;70629;-26.026;27.976;2023-07-20T03:42:12;86918.88;;;6.67;59.80
81151;BME280;70629;-26.026;27.976;2023-07-20T03:43:46;86919.66;;;6.98;59.64
81151;BME280;70629;-26.026;27.976;2023-07-20T03:45:21;86932.06;;;6.84;60.02
81151;BME280;70629;-26.026;27.976;2023-07-20T03:46:58;86925.84;;;7.11;58.57
81151;BME280;70629;-26.026;27.976;2023-07-20T03:48:34;86932.75;;;7.04;59.33
81151;BME280;70629;-26.026;27.976;2023-07-20T03:50:09;86928.81;;;7.05;59.25
81151;BME280;70629;-26.026;27.976;2023-07-20T03:51:44;86935.66;;;7.18;59.27
81151;BME280;70629;-26.026;27.976;2023-07-20T03:53:20;86937.09;;;7.09;59.20
81151;BME280;70629;-26.026;27.976;2023-07-20T03:54:55;86936.69;;;7.03;59.04
81151;BME280;70629;-26.026;27.976;2023-07-20T03:56:30;86949.13;;;6.60;61.07
81151;BME280;70629;-26.026;27.976;2023-07-20T03:58:08;86951.66;;;6.87;60.70
81151;BME280;70629;-26.026;27.976;2023-07-20T03:59:47;86950.50;;;6.90;60.68
81151;BME280;70629;-26.026;27.976;2023-07-20T04:01:22;86951.50;;;6.75;60.05
81151;BME280;70629;-26.026;27.976;2023-07-20T04:02:57;86962.88;;;6.95;59.90
81151;BME280;70629;-26.026;27.976;2023-07-20T04:04:33;86961.88;;;7.00;59.71
81151;BME280;70629;-26.026;27.976;2023-07-20T04:06:08;86957.97;;;6.91;59.61
81151;BME280;70629;-26.026;27.976;2023-07-20T04:07:43;86957.75;;;7.18;59.99
81151;BME280;70629;-26.026;27.976;2023-07-20T04:09:18;86965.25;;;7.10;60.39
81151;BME280;70629;-26.026;27.976;2023-07-20T04:11:07;86968.25;;;6.66;60.95
81151;BME280;70629;-26.026;27.976;2023-07-20T04:12:42;86973.41;;;7.02;60.40
81151;BME280;70629;-26.026;27.976;2023-07-20T04:14:17;86963.84;;;6.99;60.47
81151;BME280;70629;-26.026;27.976;2023-07-20T04:15:52;86964.28;;;7.05;60.15
81151;BME280;70629;-26.026;27.976;2023-07-20T04:17:27;86977.94;;;6.90;60.02
81151;BME280;70629;-26.026;27.976;2023-07-20T04:19:02;86971.75;;;6.78;60.22
81151;BME280;70629;-26.026;27.976;2023-07-20T04:20:37;86979.66;;;6.57;61.32
81151;BME280;70629;-26.026;27.976;2023-07-20T04:22:12;86985.53;;;6.94;60.27
81151;BME280;70629;-26.026;27.976;2023-07-20T04:24:08;86987.66;;;6.67;61.56
81151;BME280;70629;-26.026;27.976;2023-07-20T04:25:43;86994.56;;;6.70;61.17
81151;BME280;70629;-26.026;27.976;2023-07-20T04:27:18;86995.53;;;6.84;60.80
81151;BME280;70629;-26.026;27.976;2023-07-20T04:28:53;86996.81;;;6.73;62.21
81151;BME280;70629;-26.026;27.976;2023-07-20T04:30:28;86995.13;;;6.87;61.66
81151;BME280;70629;-26.026;27.976;2023-07-20T04:32:04;87003.00;;;6.76;60.84
81151;BME280;70629;-26.026;27.976;2023-07-20T04:33:39;86997.09;;;6.96;60.98
81151;BME280;70629;-26.026;27.976;2023-07-20T04:37:13;87003.41;;;6.91;61.44
81151;BME280;70629;-26.026;27.976;2023-07-20T04:38:48;87011.56;;;6.45;61.85
81151;BME280;70629;-26.026;27.976;2023-07-20T04:40:23;87008.59;;;6.51;62.91
81151;BME280;70629;-26.026;27.976;2023-07-20T04:41:57;87005.81;;;6.68;62.47
81151;BME280;70629;-26.026;27.976;2023-07-20T04:43:32;87010.47;;;6.68;62.34
81151;BME280;70629;-26.026;27.976;2023-07-20T04:45:08;87007.91;;;6.89;60.93
81151;BME280;70629;-26.026;27.976;2023-07-20T04:46:43;87009.75;;;6.77;60.73
81151;BME280;70629;-26.026;27.976;2023-07-20T04:48:20;87016.78;;;6.72;61.65
81151;BME280;70629;-26.026;27.976;2023-07-20T04:49:55;87016.59;;;6.32;63.41
81151;BME280;70629;-26.026;27.976;2023-07-20T04:51:30;87018.47;;;6.58;62.60
81151;BME280;70629;-26.026;27.976;2023-07-20T04:53:06;87015.22;;;6.50;63.34
81151;BME280;70629;-26.026;27.976;2023-07-20T04:54:41;87028.28;;;6.46;62.69
81151;BME280;70629;-26.026;27.976;2023-07-20T04:56:16;87029.69;;;6.47;63.32
81151;BME280;70629;-26.026;27.976;2023-07-20T04:57:51;87020.72;;;6.52;62.67
81151;BME280;70629;-26.026;27.976;2023-07-20T04:59:25;87023.81;;;6.68;62.50
81151;BME280;70629;-26.026;27.976;2023-07-20T05:01:00;87030.16;;;6.63;63.47
81151;BME280;70629;-26.026;27.976;2023-07-20T05:02:35;87035.50;;;6.72;62.63
81151;BME280;70629;-26.026;27.976;2023-07-20T05:04:10;87042.78;;;6.52;63.75
81151;BME280;70629;-26.026;27.976;2023-07-20T05:05:51;87035.59;;;6.55;63.97
81151;BME280;70629;-26.026;27.976;2023-07-20T05:07:25;87037.88;;;6.68;63.02
81151;BME280;70629;-26.026;27.976;2023-07-20T05:09:01;87036.91;;;6.64;63.80
81151;BME280;70629;-26.026;27.976;2023-07-20T05:10:35;87037.75;;;6.76;63.87
81151;BME280;70629;-26.026;27.976;2023-07-20T05:12:10;87048.00;;;6.98;61.67
81151;BME280;70629;-26.026;27.976;2023-07-20T05:13:46;87048.00;;;6.89;63.02
81151;BME280;70629;-26.026;27.976;2023-07-20T05:15:21;87047.59;;;6.54;63.62
81151;BME280;70629;-26.026;27.976;2023-07-20T05:16:57;87049.97;;;6.69;63.69
81151;BME280;70629;-26.026;27.976;2023-07-20T05:18:32;87049.16;;;6.76;64.23
81151;BME280;70629;-26.026;27.976;2023-07-20T05:20:08;87054.34;;;6.84;63.51
81151;BME280;70629;-26.026;27.976;2023-07-20T05:21:47;87052.53;;;6.86;64.02
81151;BME280;70629;-26.026;27.976;2023-07-20T05:23:22;87057.16;;;7.05;63.69
81151;BME280;70629;-26.026;27.976;2023-07-20T05:24:57;87055.31;;;6.88;63.73
81151;BME280;70629;-26.026;27.976;2023-07-20T05:26:32;87058.72;;;6.98;63.37
81151;BME280;70629;-26.026;27.976;2023-07-20T05:28:07;87058.59;;;6.96;63.91
81151;BME280;70629;-26.026;27.976;2023-07-20T05:29:46;87054.50;;;7.15;63.46
81151;BME280;70629;-26.026;27.976;2023-07-20T05:31:21;87063.22;;;7.25;63.23
81151;BME280;70629;-26.026;27.976;2023-07-20T05:32:56;87068.69;;;7.17;63.76
81151;BME280;70629;-26.026;27.976;2023-07-20T05:34:31;87069.66;;;7.22;63.61
81151;BME280;70629;-26.026;27.976;2023-07-20T05:36:06;87067.44;;;7.09;63.92
81151;BME280;70629;-26.026;27.976;2023-07-20T05:37:40;87068.97;;;7.21;63.98
81151;BME280;70629;-26.026;27.976;2023-07-20T05:39:18;87076.59;;;7.25;64.38
81151;BME280;70629;-26.026;27.976;2023-07-20T05:40:59;87075.16;;;7.33;63.71
81151;BME280;70629;-26.026;27.976;2023-07-20T05:42:38;87074.03;;;7.07;64.71
81151;BME280;70629;-26.026;27.976;2023-07-20T05:44:13;87082.03;;;7.46;64.01
81151;BME280;70629;-26.026;27.976;2023-07-20T05:45:48;87082.72;;;7.66;63.13
81151;BME280;70629;-26.026;27.976;2023-07-20T05:47:24;87086.28;;;7.39;64.43
81151;BME280;70629;-26.026;27.976;2023-07-20T05:48:59;87082.47;;;7.52;64.60
81151;BME280;70629;-26.026;27.976;2023-07-20T05:50:34;87088.19;;;7.68;64.39
81151;BME280;70629;-26.026;27.976;2023-07-20T05:52:09;87095.06;;;7.90;64.18
81151;BME280;70629;-26.026;27.976;2023-07-20T05:53:44;87095.66;;;7.79;64.72
81151;BME280;70629;-26.026;27.976;2023-07-20T05:55:18;87099.84;;;7.91;64.06
81151;BME280;70629;-26.026;27.976;2023-07-20T05:56:53;87095.13;;;8.11;65.39
81151;BME280;70629;-26.026;27.976;2023-07-20T05:58:28;87097.91;;;8.23;65.61
81151;BME280;70629;-26.026;27.976;2023-07-20T06:00:04;87096.72;;;8.45;65.29
81151;BME280;70629;-26.026;27.976;2023-07-20T06:01:39;87099.66;;;8.49;66.12
81151;BME280;70629;-26.026;27.976;2023-07-20T06:03:13;87101.44;;;8.66;66.28
81151;BME280;70629;-26.026;27.976;2023-07-20T06:04:48;87100.56;;;8.63;66.47
81151;BME280;70629;-26.026;27.976;2023-07-20T06:06:24;87105.84;;;8.82;66.60
81151;BME280;70629;-26.026;27.976;2023-07-20T06:08:00;87106.59;;;8.95;65.94
81151;BME280;70629;-26.026;27.976;2023-07-20T06:09:35;87116.06;;;8.96;67.37
81151;BME280;70629;-26.026;27.976;2023-07-20T06:11:10;87113.84;;;8.92;67.43
81151;BME280;70629;-26.026;27.976;2023-07-20T06:12:45;87114.59;;;9.04;66.33
81151;BME280;70629;-26.026;27.976;2023-07-20T06:14:20;87123.28;;;9.14;67.78
81151;BME280;70629;-26.026;27.976;2023-07-20T06:15:55;87117.50;;;9.18;67.49
81151;BME280;70629;-26.026;27.976;2023-07-20T06:17:30;87128.06;;;9.37;67.45
81151;BME280;70629;-26.026;27.976;2023-07-20T06:19:06;87125.78;;;9.43;67.59
81151;BME280;70629;-26.026;27.976;2023-07-20T06:20:41;87126.63;;;9.46;67.63
81151;BME280;70629;-26.026;27.976;2023-07-20T06:22:16;87132.94;;;9.50;68.33
81151;BME280;70629;-26.026;27.976;2023-07-20T06:23:50;87132.81;;;9.48;68.26
81151;BME280;70629;-26.026;27.976;2023-07-20T06:25:26;87134.00;;;9.57;67.94
81151;BME280;70629;-26.026;27.976;2023-07-20T06:27:01;87137.44;;;9.69;68.43
81151;BME280;70629;-26.026;27.976;2023-07-20T06:28:35;87140.88;;;9.81;68.03
81151;BME280;70629;-26.026;27.976;2023-07-20T06:30:11;87143.63;;;9.93;67.40
81151;BME280;70629;-26.026;27.976;2023-07-20T06:31:47;87137.19;;;9.98;68.55
81151;BME280;70629;-26.026;27.976;2023-07-20T06:33:23;87143.75;;;10.06;68.02
81151;BME280;70629;-26.026;27.976;2023-07-20T06:34:58;87145.28;;;10.09;68.41
81151;BME280;70629;-26.026;27.976;2023-07-20T06:36:33;87149.56;;;10.03;68.00
81151;BME280;70629;-26.026;27.976;2023-07-20T06:38:08;87150.59;;;10.19;67.67
81151;BME280;70629;-26.026;27.976;2023-07-20T06:39:45;87150.13;;;10.23;67.42
81151;BME280;70629;-26.026;27.976;2023-07-20T06:41:24;87152.38;;;10.26;68.72
81151;BME280;70629;-26.026;27.976;2023-07-20T06:43:01;87160.34;;;10.47;67.16
81151;BME280;70629;-26.026;27.976;2023-07-20T06:44:39;87157.66;;;10.47;68.33
81151;BME280;70629;-26.026;27.976;2023-07-20T06:46:14;87159.19;;;10.50;68.76
81151;BME280;70629;-26.026;27.976;2023-07-20T06:47:49;87161.31;;;10.64;67.56
81151;BME280;70629;-26.026;27.976;2023-07-20T06:49:28;87159.06;;;10.60;68.65
81151;BME280;70629;-26.026;27.976;2023-07-20T06:51:03;87161.56;;;10.68;68.25
81151;BME280;70629;-26.026;27.976;2023-07-20T06:52:37;87168.22;;;10.78;68.56
81151;BME280;70629;-26.026;27.976;2023-07-20T06:54:14;87165.06;;;10.82;68.90
81151;BME280;70629;-26.026;27.976;2023-07-20T06:55:48;87168.81;;;10.88;68.28
81151;BME280;70629;-26.026;27.976;2023-07-20T06:57:23;87165.06;;;10.93;68.95
81151;BME280;70629;-26.026;27.976;2023-07-20T06:58:58;87166.59;;;10.96;68.80
81151;BME280;70629;-26.026;27.976;2023-07-20T07:00:33;87167.53;;;11.01;68.91
81151;BME280;70629;-26.026;27.976;2023-07-20T07:02:08;87165.88;;;11.08;68.82
81151;BME280;70629;-26.026;27.976;2023-07-20T07:03:47;87172.06;;;11.22;68.36
81151;BME280;70629;-26.026;27.976;2023-07-20T07:05:26;87173.94;;;11.31;68.60
81151;BME280;70629;-26.026;27.976;2023-07-20T07:07:08;87172.91;;;11.24;68.46
81151;BME280;70629;-26.026;27.976;2023-07-20T07:08:44;87178.63;;;11.30;68.13
81151;BME280;70629;-26.026;27.976;2023-07-20T07:10:19;87175.22;;;11.41;67.92
81151;BME280;70629;-26.026;27.976;2023-07-20T07:11:54;87178.38;;;11.50;67.87
81151;BME280;70629;-26.026;27.976;2023-07-20T07:13:29;87180.13;;;11.57;67.56
81151;BME280;70629;-26.026;27.976;2023-07-20T07:15:05;87188.53;;;11.63;67.31
81151;BME280;70629;-26.026;27.976;2023-07-20T07:16:41;87187.16;;;11.50;67.35
81151;BME280;70629;-26.026;27.976;2023-07-20T07:18:16;87188.78;;;11.67;67.14
81151;BME280;70629;-26.026;27.976;2023-07-20T07:19:55;87190.97;;;11.70;67.66
81151;BME280;70629;-26.026;27.976;2023-07-20T07:21:31;87192.50;;;11.73;67.36
81151;BME280;70629;-26.026;27.976;2023-07-20T07:23:06;87199.19;;;11.61;68.12
81151;BME280;70629;-26.026;27.976;2023-07-20T07:24:41;87195.53;;;11.68;67.56
81151;BME280;70629;-26.026;27.976;2023-07-20T07:26:16;87188.28;;;11.82;67.03
81151;BME280;70629;-26.026;27.976;2023-07-20T07:27:52;87194.56;;;11.98;67.40
81151;BME280;70629;-26.026;27.976;2023-07-20T07:29:28;87200.94;;;11.91;66.76
81151;BME280;70629;-26.026;27.976;2023-07-20T07:31:06;87198.09;;;11.89;67.14
81151;BME280;70629;-26.026;27.976;2023-07-20T07:32:41;87198.31;;;11.93;66.79
81151;BME280;70629;-26.026;27.976;2023-07-20T07:34:17;87198.31;;;11.93;66.65
81151;BME280;70629;-26.026;27.976;2023-07-20T07:35:51;87207.13;;;11.94;66.39
81151;BME280;70629;-26.026;27.976;2023-07-20T07:37:26;87218.25;;;12.00;66.38
81151;BME280;70629;-26.026;27.976;2023-07-20T07:39:03;87213.47;;;12.23;66.76
81151;BME280;70629;-26.026;27.976;2023-07-20T07:40:41;87210.13;;;12.37;66.50
81151;BME280;70629;-26.026;27.976;2023-07-20T07:42:17;87211.44;;;12.36;64.78
81151;BME280;70629;-26.026;27.976;2023-07-20T07:43:56;87211.75;;;12.42;64.63
81151;BME280;70629;-26.026;27.976;2023-07-20T07:45:34;87208.53;;;12.57;64.55
81151;BME280;70629;-26.026;27.976;2023-07-20T07:47:11;87209.81;;;12.56;64.65
81151;BME280;70629;-26.026;27.976;2023-07-20T07:48:46;87212.81;;;12.62;63.22
81151;BME280;70629;-26.026;27.976;2023-07-20T07:50:22;87213.75;;;12.66;63.53
81151;BME280;70629;-26.026;27.976;2023-07-20T07:51:57;87213.66;;;12.64;64.27
81151;BME280;70629;-26.026;27.976;2023-07-20T07:53:32;87222.78;;;12.71;63.58
81151;BME280;70629;-26.026;27.976;2023-07-20T07:55:07;87221.94;;;12.68;63.96
81151;BME280;70629;-26.026;27.976;2023-07-20T07:56:42;87222.66;;;12.69;63.25
81151;BME280;70629;-26.026;27.976;2023-07-20T07:58:18;87224.94;;;12.61;63.52
81151;BME280;70629;-26.026;27.976;2023-07-20T07:59:53;87226.63;;;12.68;63.26
81151;BME280;70629;-26.026;27.976;2023-07-20T08:01:29;87227.84;;;12.65;63.21
81151;BME280;70629;-26.026;27.976;2023-07-20T08:03:06;87228.06;;;12.69;62.46
81151;BME280;70629;-26.026;27.976;2023-07-20T08:04:42;87220.91;;;12.62;62.80
81151;BME280;70629;-26.026;27.976;2023-07-20T08:06:17;87229.28;;;12.54;63.68
81151;BME280;70629;-26.026;27.976;2023-07-20T08:07:52;87233.03;;;12.61;63.24
81151;BME280;70629;-26.026;27.976;2023-07-20T08:09:27;87226.38;;;12.75;62.61
81151;BME280;70629;-26.026;27.976;2023-07-20T08:11:02;87221.63;;;12.62;63.10
81151;BME280;70629;-26.026;27.976;2023-07-20T08:13:00;87232.88;;;12.70;62.84
81151;BME280;70629;-26.026;27.976;2023-07-20T08:14:35;87234.31;;;12.85;62.52
81151;BME280;70629;-26.026;27.976;2023-07-20T08:16:10;87225.09;;;12.90;62.31
81151;BME280;70629;-26.026;27.976;2023-07-20T08:17:45;87226.13;;;12.97;61.64
81151;BME280;70629;-26.026;27.976;2023-07-20T08:19:20;87223.50;;;12.85;61.56
81151;BME280;70629;-26.026;27.976;2023-07-20T08:21:18;87234.03;;;12.93;61.59
81151;BME280;70629;-26.026;27.976;2023-07-20T08:22:54;87236.59;;;12.91;61.91
81151;BME280;70629;-26.026;27.976;2023-07-20T08:24:29;87235.81;;;12.88;61.28
81151;BME280;70629;-26.026;27.976;2023-07-20T08:26:04;87232.75;;;12.94;61.47
81151;BME280;70629;-26.026;27.976;2023-07-20T08:27:39;87229.75;;;13.01;60.97
81151;BME280;70629;-26.026;27.976;2023-07-20T08:29:15;87238.41;;;13.11;60.50